Time;durP1;ratioP1;P1;durP2;ratioP2;P2;SDS_P1;SDS_P2;PMS_P1;PMS_P2;Temp;Humidity;BMP_temperature;BMP_pressure;BME280_temperature;BME280_humidity;BME280_pressure;Samples;Min_cycle;Max_cycle;Signal;HPM_P1;HPM_P2
2023/01/27 00:01:35;;;;;;;28.05;14.63;;;0.80;99.90;;;;;;5001387;28;19894;-78
2023/01/27 00:04:01;;;;;;;;;;;0.80;99.90;;;;;;5001186;28;20029;-78
2023/01/27 00:06:26;;;;;;;47.17;21.13;;;0.80;99.90;;;;;;5001387;28;19894;-78
2023/01/27 00:08:52;;;;;;;;;;;0.80;99.90;;;;;;5001159;28;20022;-80
2023/01/27 00:14:02;;;;;;;30.27;14.93;;;0.90;99.90;;;;;;5001250;28;20030;-77
2023/01/27 00:16:28;;;;;;;;;;;0.90;99.90;;;;;;5001451;28;20046;-77
2023/01/27 00:18:53;;;;;;;29.67;15.95;;;1.00;99.90;;;;;;5001040;28;19914;-78
2023/01/27 00:26:48;;;;;;;32.42;16.98;;;0.90;99.90;;;;;;5000972;28;20108;-77
2023/01/27 00:29:13;;;;;;;;;;;0.90;99.90;;;;;;5001110;28;20015;-82
2023/01/27 00:34:24;;;;;;;34.30;16.65;;;1.10;99.90;;;;;;5000495;28;20057;-83
2023/01/27 00:36:49;;;;;;;;;;;1.00;99.90;;;;;;5000522;28;20027;-82
2023/01/27 00:39:15;;;;;;;24.38;11.45;;;0.90;99.90;;;;;;5000717;28;19900;-84
2023/01/27 00:41:41;;;;;;;;;;;0.90;99.90;;;;;;5000952;28;20050;-82
2023/01/27 00:44:11;;;;;;;23.88;11.40;;;1.00;99.90;;;;;;4998563;28;19917;-83
2023/01/27 00:46:38;;;;;;;21.45;12.13;;;0.90;99.90;;;;;;4998369;28;20205;-84
2023/01/27 00:49:03;;;;;;;23.58;12.18;;;0.90;99.90;;;;;;4998312;28;20035;-84
2023/01/27 00:51:30;;;;;;;;;;;0.90;99.90;;;;;;4997953;28;20099;-83
2023/01/27 00:53:56;;;;;;;25.83;13.27;;;0.80;99.90;;;;;;4997950;28;19902;-84
2023/01/27 00:56:21;;;;;;;;;;;0.90;99.90;;;;;;4997777;28;20007;-84
2023/01/27 00:58:47;;;;;;;24.75;13.75;;;0.80;99.90;;;;;;4997376;28;19949;-83
2023/01/27 01:01:14;;;;;;;;;;;0.90;99.90;;;;;;4996419;28;20037;-84
2023/01/27 01:03:40;;;;;;;23.60;13.02;;;0.90;99.90;;;;;;4997189;28;19897;-84
2023/01/27 01:06:09;;;;;;;25.38;13.13;;;0.80;99.90;;;;;;4996700;28;20053;-84
2023/01/27 01:08:36;;;;;;;30.35;14.32;;;0.90;99.90;;;;;;4997608;28;20030;-84
2023/01/27 01:11:04;;;;;;;19.45;10.23;;;0.90;99.90;;;;;;4997361;28;20023;-82
2023/01/27 01:13:30;;;;;;;20.33;11.43;;;1.00;99.90;;;;;;4999181;28;20021;-83
2023/01/27 01:15:56;;;;;;;20.05;11.32;;;1.20;99.90;;;;;;4998109;28;20015;-84
2023/01/27 01:18:23;;;;;;;20.13;11.32;;;1.00;99.90;;;;;;4997988;28;20019;-84
2023/01/27 01:20:49;;;;;;;22.17;11.02;;;1.20;99.90;;;;;;4997470;28;20071;-85
2023/01/27 01:23:15;;;;;;;23.90;11.60;;;1.20;99.90;;;;;;4998325;28;20046;-83
2023/01/27 01:25:42;;;;;;;23.15;11.60;;;1.10;99.90;;;;;;5000221;28;20011;-78
2023/01/27 01:28:08;;;;;;;21.25;11.25;;;1.00;99.90;;;;;;5000162;28;20023;-81
2023/01/27 01:30:35;;;;;;;22.17;11.60;;;1.00;99.90;;;;;;4999504;28;20091;-80
2023/01/27 01:33:02;;;;;;;23.67;10.98;;;1.00;99.90;;;;;;4998614;28;20058;-83
2023/01/27 01:35:29;;;;;;;23.20;11.45;;;0.90;99.90;;;;;;4997130;28;20033;-82
2023/01/27 01:37:54;;;;;;;27.02;12.05;;;0.90;99.90;;;;;;4998244;28;20023;-85
2023/01/27 01:40:21;;;;;;;;;;;0.90;99.90;;;;;;4998907;28;20074;-84
2023/01/27 01:43:00;;;;;;;22.33;11.53;;;0.80;99.90;;;;;;4998834;28;19901;-85
2023/01/27 01:45:32;;;;;;;25.08;11.50;;;0.80;99.90;;;;;;4998496;28;20015;-85
2023/01/27 01:48:04;;;;;;;21.80;10.95;;;0.90;99.90;;;;;;4998057;28;20035;-84
2023/01/27 01:50:31;;;;;;;24.15;11.07;;;0.80;99.90;;;;;;4998612;28;20492;-84
2023/01/27 01:52:59;;;;;;;24.33;11.63;;;0.90;99.90;;;;;;4997934;28;20011;-85
2023/01/27 01:55:25;;;;;;;25.60;11.70;;;0.70;99.90;;;;;;4998623;28;20015;-85
2023/01/27 01:57:52;;;;;;;19.70;10.73;;;0.70;99.90;;;;;;4998438;28;20019;-85
2023/01/27 02:00:18;;;;;;;22.35;12.02;;;0.60;99.90;;;;;;4998595;28;20031;-85
2023/01/27 02:02:47;;;;;;;22.75;13.05;;;0.40;99.90;;;;;;4998822;28;20062;-84
2023/01/27 02:05:28;;;;;;;24.67;11.38;;;0.50;99.90;;;;;;4997837;28;20034;-84
2023/01/27 02:08:12;;;;;;;23.90;12.32;;;0.40;99.90;;;;;;4998507;28;20025;-84
2023/01/27 02:10:38;;;;;;;23.10;12.13;;;0.40;99.90;;;;;;4997464;28;20050;-80
2023/01/27 02:13:04;;;;;;;24.23;11.52;;;0.40;99.90;;;;;;4999664;28;20074;-84
2023/01/27 02:15:30;;;;;;;;;;;0.40;99.90;;;;;;5001930;28;20033;-85
2023/01/27 02:17:58;;;;;;;25.77;12.95;;;0.40;99.90;;;;;;5001365;28;19910;-83
2023/01/27 02:20:40;;;;;;;23.40;11.95;;;0.40;99.90;;;;;;5001705;28;20026;-84
2023/01/27 02:23:27;;;;;;;30.92;12.43;;;0.10;99.90;;;;;;5000590;28;20464;-84
2023/01/27 02:26:14;;;;;;;22.55;11.32;;;0.40;99.90;;;;;;5000923;28;20011;-83
2023/01/27 02:28:40;;;;;;;22.60;12.30;;;0.40;99.90;;;;;;5001352;28;20030;-84
2023/01/27 02:31:06;;;;;;;19.23;9.90;;;0.30;99.90;;;;;;5000905;28;20046;-84
2023/01/27 02:33:32;;;;;;;;;;;0.40;99.90;;;;;;5000132;28;20050;-83
2023/01/27 02:36:02;;;;;;;24.00;9.57;;;0.50;99.90;;;;;;5001149;28;19917;-84
2023/01/27 02:38:39;;;;;;;17.95;9.48;;;0.50;99.90;;;;;;5000100;28;20027;-83
2023/01/27 02:41:16;;;;;;;22.27;10.73;;;0.50;99.90;;;;;;4999950;28;20037;-84
2023/01/27 02:43:42;;;;;;;16.88;8.07;;;0.50;99.90;;;;;;5000357;28;20030;-84
2023/01/27 02:46:08;;;;;;;;;;;0.60;99.90;;;;;;5000159;28;20035;-85
2023/01/27 02:48:34;;;;;;;17.95;9.50;;;0.70;99.90;;;;;;4999179;28;19949;-84
2023/01/27 02:50:59;;;;;;;;;;;0.80;99.90;;;;;;5001082;28;20027;-84
2023/01/27 02:53:25;;;;;;;21.35;10.48;;;0.70;99.90;;;;;;4998849;28;19970;-85
2023/01/27 02:55:51;;;;;;;;;;;0.70;99.90;;;;;;5000498;28;20007;-84
2023/01/27 02:58:17;;;;;;;24.65;12.60;;;0.70;99.90;;;;;;5000178;28;19933;-85
2023/01/27 03:00:43;;;;;;;;;;;0.70;99.90;;;;;;5001362;28;20027;-84
2023/01/27 03:03:09;;;;;;;26.80;12.60;;;0.80;99.90;;;;;;5000676;28;20392;-85
2023/01/27 03:05:35;;;;;;;;;;;0.80;99.90;;;;;;4999885;28;20086;-85
2023/01/27 03:08:01;;;;;;;23.33;11.48;;;0.80;99.90;;;;;;4999723;28;19965;-83
2023/01/27 03:10:27;;;;;;;;;;;0.80;99.90;;;;;;5000789;28;20027;-85
2023/01/27 03:12:52;;;;;;;27.73;11.63;;;0.90;99.90;;;;;;4999749;28;19949;-84
2023/01/27 03:18:08;;;;;;;20.50;11.02;;;1.00;99.90;;;;;;5001119;28;19912;-84
2023/01/27 03:20:34;;;;;;;18.55;10.43;;;1.10;99.90;;;;;;5001225;28;20022;-85
2023/01/27 03:23:00;;;;;;;23.70;11.52;;;1.10;99.90;;;;;;5000103;28;20046;-85
2023/01/27 03:25:26;;;;;;;;;;;1.10;99.90;;;;;;5000462;28;20043;-85
2023/01/27 03:27:52;;;;;;;20.55;10.10;;;1.30;99.90;;;;;;5000702;28;19910;-84
2023/01/27 03:30:18;;;;;;;;;;;1.10;99.90;;;;;;5001189;28;20058;-85
2023/01/27 03:32:47;;;;;;;24.05;11.55;;;1.10;99.90;;;;;;4999990;28;19906;-85
2023/01/27 03:35:16;;;;;;;26.13;12.63;;;1.00;99.90;;;;;;5000019;28;20026;-84
2023/01/27 03:48:41;;;;;;;18.98;10.05;;;0.70;99.90;;;;;;5000435;28;20014;-84
2023/01/27 03:51:09;;;;;;;21.13;10.55;;;0.70;99.90;;;;;;5000488;28;20096;-85
2023/01/27 03:53:36;;;;;;;19.75;9.38;;;0.70;99.90;;;;;;5000422;28;20035;-85
2023/01/27 03:56:02;;;;;;;20.98;9.60;;;0.50;99.90;;;;;;5000257;28;20058;-85
2023/01/27 03:58:30;;;;;;;22.85;10.05;;;0.60;99.90;;;;;;4999531;28;20034;-85
2023/01/27 04:01:02;;;;;;;22.15;11.07;;;0.60;99.90;;;;;;4999578;28;20049;-85
2023/01/27 04:09:05;;;;;;;18.70;10.13;;;0.60;99.90;;;;;;5000040;28;20065;-86
2023/01/27 04:14:19;;;;;;;20.48;9.82;;;0.60;99.90;;;;;;5000268;28;20054;-85
2023/01/27 04:16:45;;;;;;;;;;;0.60;99.90;;;;;;5000179;28;20015;-85
2023/01/27 04:19:11;;;;;;;30.80;15.38;;;0.60;99.90;;;;;;4999297;28;19890;-85
2023/01/27 04:21:37;;;;;;;22.45;11.70;;;0.60;99.90;;;;;;4999690;28;20015;-84
2023/01/27 04:24:04;;;;;;;;;;;0.70;99.90;;;;;;5000361;28;20034;-85
2023/01/27 04:26:33;;;;;;;21.90;10.75;;;0.60;99.90;;;;;;4999681;28;19918;-85
2023/01/27 04:29:03;;;;;;;20.23;10.57;;;0.50;99.90;;;;;;4999737;28;20022;-84
2023/01/27 04:31:31;;;;;;;22.55;10.48;;;0.50;99.90;;;;;;4996050;28;20034;-84
2023/01/27 04:33:57;;;;;;;21.40;9.82;;;0.50;99.90;;;;;;4996706;28;20050;-83
2023/01/27 04:36:23;;;;;;;;;;;0.50;99.90;;;;;;4998549;28;20035;-84
2023/01/27 04:38:48;;;;;;;21.52;9.88;;;0.50;99.90;;;;;;4997860;28;19910;-84
2023/01/27 04:41:14;;;;;;;;;;;0.40;99.90;;;;;;4999764;28;20039;-83
2023/01/27 04:43:40;;;;;;;13.57;7.57;;;0.60;99.90;;;;;;4998927;28;19910;-85
2023/01/27 04:46:06;;;;;;;;;;;0.80;99.90;;;;;;4999268;28;20042;-83
2023/01/27 04:48:32;;;;;;;15.48;7.97;;;0.70;99.90;;;;;;4999814;28;19929;-85
2023/01/27 04:50:58;;;;;;;;;;;0.60;99.90;;;;;;4999675;28;20057;-85
2023/01/27 04:53:23;;;;;;;15.50;7.47;;;0.70;99.90;;;;;;4999253;28;19926;-82
2023/01/27 04:55:49;;;;;;;;;;;0.60;99.90;;;;;;4999807;28;20026;-85
2023/01/27 04:58:16;;;;;;;11.63;6.43;;;0.60;99.90;;;;;;5000471;28;19925;-84
2023/01/27 05:00:43;;;;;;;12.40;6.28;;;0.80;99.90;;;;;;5000385;28;20003;-82
2023/01/27 05:03:10;;;;;;;16.13;6.88;;;0.80;99.90;;;;;;4999853;28;20038;-85
2023/01/27 05:05:37;;;;;;;13.82;7.75;;;0.80;99.90;;;;;;4999948;28;20015;-83
2023/01/27 05:08:05;;;;;;;15.02;8.23;;;0.80;99.90;;;;;;4999702;28;20011;-84
2023/01/27 05:10:31;;;;;;;17.25;8.35;;;0.80;99.90;;;;;;4997939;28;20094;-84
2023/01/27 05:12:57;;;;;;;15.75;8.27;;;0.80;99.90;;;;;;4999200;28;20023;-83
2023/01/27 05:15:24;;;;;;;15.57;8.80;;;0.80;99.90;;;;;;4999662;28;20099;-84
2023/01/27 05:17:50;;;;;;;18.25;9.95;;;0.80;99.90;;;;;;4999166;28;20011;-85
2023/01/27 05:20:16;;;;;;;;;;;0.80;99.90;;;;;;4998835;28;20471;-85
2023/01/27 05:22:42;;;;;;;19.33;10.27;;;0.80;99.90;;;;;;4998140;28;19894;-85
2023/01/27 05:25:08;;;;;;;;;;;0.70;99.90;;;;;;4999011;28;20035;-85
2023/01/27 05:27:34;;;;;;;25.83;11.90;;;0.70;99.90;;;;;;4999062;28;19910;-85
2023/01/27 05:29:59;;;;;;;;;;;0.60;99.90;;;;;;4998292;28;20026;-85
2023/01/27 05:32:25;;;;;;;20.75;10.07;;;0.80;99.90;;;;;;4998804;28;19918;-85
2023/01/27 05:34:51;;;;;;;;;;;0.70;99.90;;;;;;4999234;28;20022;-85
2023/01/27 05:37:17;;;;;;;15.98;8.40;;;0.70;99.90;;;;;;4998787;28;19894;-85
2023/01/27 05:39:43;;;;;;;;;;;0.90;99.90;;;;;;4998812;28;20042;-84
2023/01/27 05:42:08;;;;;;;23.45;10.95;;;0.80;99.90;;;;;;4999050;28;19890;-83
2023/01/27 05:44:34;;;;;;;;;;;0.80;99.90;;;;;;5000025;28;20086;-85
2023/01/27 05:47:00;;;;;;;22.77;9.43;;;0.70;99.90;;;;;;4999638;28;19929;-86
2023/01/27 05:49:26;;;;;;;;;;;0.90;99.90;;;;;;5002990;28;20007;-85
2023/01/27 05:51:52;;;;;;;15.75;6.60;;;0.80;99.90;;;;;;5001525;28;19922;-86
2023/01/27 05:54:18;;;;;;;;;;;0.80;99.90;;;;;;5002724;28;20058;-85
2023/01/27 05:56:43;;;;;;;12.95;6.40;;;0.90;99.90;;;;;;5002350;28;19906;-85
2023/01/27 05:59:09;;;;;;;;;;;0.90;99.90;;;;;;5002630;28;20011;-85
2023/01/27 06:01:36;;;;;;;14.45;6.95;;;0.80;99.90;;;;;;5001733;28;19905;-85
2023/01/27 06:04:02;;;;;;;15.60;7.15;;;1.10;99.90;;;;;;5001569;28;20047;-86
2023/01/27 06:06:29;;;;;;;13.77;6.95;;;0.90;99.90;;;;;;5001487;28;20023;-85
2023/01/27 06:08:55;;;;;;;14.95;7.55;;;1.00;99.90;;;;;;5000737;28;20063;-85
2023/01/27 06:11:22;;;;;;;;;;;1.00;99.90;;;;;;5001752;28;20023;-85
2023/01/27 06:13:48;;;;;;;;;;;1.00;99.90;;;;;;5001868;28;19909;-85
2023/01/27 06:16:16;;;;;;;49.30;21.95;;;1.00;99.90;;;;;;5001886;28;19906;-85
2023/01/27 06:18:43;;;;;;;38.63;19.40;;;1.00;99.90;;;;;;5001432;28;20026;-85
2023/01/27 06:21:11;;;;;;;46.13;24.10;;;1.00;99.90;;;;;;5001945;28;20011;-85
2023/01/27 06:23:37;;;;;;;38.13;17.23;;;1.20;99.90;;;;;;5000859;28;20030;-85
2023/01/27 06:26:08;;;;;;;94.95;34.50;;;1.10;99.90;;;;;;5000808;28;20037;-86
2023/01/27 06:28:34;;;;;;;256.33;94.72;;;1.10;99.90;;;;;;5000658;28;20027;-85
2023/01/27 06:31:08;;;;;;;138.02;55.25;;;1.10;99.90;;;;;;5001279;28;20137;-85
2023/01/27 06:33:35;;;;;;;22.70;10.90;;;1.20;99.90;;;;;;5001206;28;20042;-85
2023/01/27 06:36:05;;;;;;;25.17;12.07;;;1.10;99.90;;;;;;5001812;28;20099;-85
2023/01/27 06:38:31;;;;;;;21.80;10.32;;;1.20;99.90;;;;;;5001831;28;20010;-85
2023/01/27 06:40:57;;;;;;;;;;;1.20;99.90;;;;;;5001125;28;20037;-85
2023/01/27 06:43:23;;;;;;;20.05;11.27;;;1.40;99.90;;;;;;5001563;28;19965;-85
2023/01/27 06:45:49;;;;;;;;;;;1.10;99.90;;;;;;5001310;28;20077;-84
2023/01/27 06:48:15;;;;;;;33.28;15.10;;;1.10;99.90;;;;;;5001749;28;19910;-84
2023/01/27 06:50:41;;;;;;;;;;;1.20;99.90;;;;;;5000728;28;20041;-84
2023/01/27 06:53:07;;;;;;;24.73;10.55;;;1.20;99.90;;;;;;5000658;28;19910;-85
2023/01/27 06:55:34;;;;;;;29.15;14.07;;;1.10;99.90;;;;;;5000851;28;20023;-85
2023/01/27 06:58:01;;;;;;;33.90;14.00;;;1.60;99.90;;;;;;5000346;28;20023;-84
2023/01/27 07:00:27;;;;;;;49.15;18.20;;;1.30;99.90;;;;;;5000772;28;20011;-84
2023/01/27 07:02:55;;;;;;;;;;;1.40;99.90;;;;;;5001077;28;20022;-85
2023/01/27 07:05:21;;;;;;;71.75;25.73;;;1.30;99.90;;;;;;5000694;28;19895;-85
2023/01/27 07:07:47;;;;;;;;;;;1.30;99.90;;;;;;5000768;28;20054;-83
2023/01/27 07:10:13;;;;;;;65.55;25.45;;;1.30;99.90;;;;;;5000323;28;19914;-85
2023/01/27 07:12:39;;;;;;;;;;;1.40;99.90;;;;;;5000990;28;20022;-85
2023/01/27 07:15:06;;;;;;;55.72;23.92;;;1.40;99.90;;;;;;4999383;28;19906;-85
2023/01/27 07:17:33;;;;;;;46.60;22.27;;;1.70;99.90;;;;;;5000581;28;20103;-85
2023/01/27 07:19:58;;;;;;;124.80;58.95;;;1.40;99.90;;;;;;4999627;28;20037;-84
2023/01/27 07:22:24;;;;;;;;;;;1.50;99.90;;;;;;5000849;28;20007;-85
2023/01/27 07:24:50;;;;;;;116.82;53.42;;;1.70;99.90;;;;;;4999330;28;19932;-85
2023/01/27 07:27:16;;;;;;;;;;;1.50;99.90;;;;;;5000439;28;20038;-85
2023/01/27 07:29:42;;;;;;;45.88;20.30;;;1.60;99.90;;;;;;5000037;28;19925;-85
2023/01/27 07:32:08;;;;;;;;;;;1.50;99.90;;;;;;5001179;28;20027;-85
2023/01/27 07:34:33;;;;;;;23.77;11.05;;;1.50;99.90;;;;;;4999932;28;19918;-84
2023/01/27 07:37:00;;;;;;;;;;;1.80;99.90;;;;;;5000668;28;20027;-85
2023/01/27 07:39:26;;;;;;;13.50;6.72;;;2.00;99.90;;;;;;5000271;28;19945;-85
2023/01/27 07:41:52;;;;;;;;;;;1.80;99.90;;;;;;5000168;28;20027;-85
2023/01/27 07:44:20;;;;;;;11.35;6.05;;;1.70;99.90;;;;;;4999122;28;19910;-85
2023/01/27 07:46:46;;;;;;;16.80;8.05;;;1.80;99.90;;;;;;5015170;28;20074;-85
2023/01/27 07:49:12;;;;;;;;;;;1.90;99.90;;;;;;4999633;28;20019;-85
2023/01/27 07:51:37;;;;;;;14.93;7.75;;;1.70;99.90;;;;;;4999102;28;19920;-85
2023/01/27 07:54:04;;;;;;;;;;;1.70;99.90;;;;;;5000046;28;20031;-85
2023/01/27 07:56:31;;;;;;;12.80;6.28;;;1.80;99.90;;;;;;4999983;28;19966;-85
2023/01/27 07:58:57;;;;;;;10.82;6.50;;;1.80;99.90;;;;;;4999007;28;20027;-85
2023/01/27 08:01:23;;;;;;;34.72;19.55;;;1.80;99.90;;;;;;4999991;28;20038;-84
2023/01/27 08:03:49;;;;;;;19.23;10.02;;;1.80;99.90;;;;;;5000311;28;20031;-85
2023/01/27 08:06:18;;;;;;;;;;;1.60;99.90;;;;;;4999762;28;20027;-85
2023/01/27 08:08:44;;;;;;;21.05;10.55;;;1.80;99.90;;;;;;4999420;28;19917;-85
2023/01/27 08:11:11;;;;;;;;;;;2.00;99.90;;;;;;4999584;28;20007;-85
2023/01/27 08:13:37;;;;;;;;;;;2.00;99.90;;;;;;4999763;28;19897;-85
2023/01/27 08:16:05;;;;;;;18.20;9.57;;;1.40;99.90;;;;;;4999114;28;19906;-83
2023/01/27 08:18:34;;;;;;;22.88;13.10;;;1.90;99.90;;;;;;4999311;28;20018;-84
2023/01/27 08:21:02;;;;;;;23.58;11.70;;;2.00;99.90;;;;;;4998563;28;20011;-85
2023/01/27 08:23:28;;;;;;;22.85;11.25;;;2.00;99.90;;;;;;4999196;28;20048;-85
2023/01/27 08:25:56;;;;;;;16.77;9.35;;;2.10;99.90;;;;;;4999724;28;20006;-85
2023/01/27 08:28:24;;;;;;;17.30;8.90;;;2.00;99.90;;;;;;4999134;28;20027;-85
2023/01/27 08:30:50;;;;;;;18.42;9.38;;;2.20;99.90;;;;;;4998514;28;20066;-85
2023/01/27 08:33:17;;;;;;;17.60;10.13;;;2.20;99.90;;;;;;4998942;28;20038;-85
2023/01/27 08:40:54;;;;;;;11.15;5.05;;;2.40;99.90;;;;;;5000614;23;20078;-85
2023/01/27 08:43:19;;;;;;;;;;;2.30;99.90;;;;;;4997971;28;20007;-84
2023/01/27 08:45:46;;;;;;;11.07;4.90;;;2.30;99.90;;;;;;4998201;28;19933;-84
2023/01/27 08:48:12;;;;;;;9.70;4.60;;;2.30;99.90;;;;;;4999047;28;20014;-85
2023/01/27 08:50:37;;;;;;;;;;;2.30;99.90;;;;;;4997497;28;20027;-85
2023/01/27 08:53:03;;;;;;;12.55;5.72;;;2.20;99.90;;;;;;4999082;28;19937;-85
2023/01/27 08:55:31;;;;;;;20.58;9.73;;;2.20;99.90;;;;;;4998215;28;20050;-85
2023/01/27 08:57:58;;;;;;;13.13;6.93;;;2.20;99.90;;;;;;4998646;28;20034;-84
2023/01/27 09:00:25;;;;;;;14.60;7.15;;;2.20;99.90;;;;;;4998554;28;20050;-85
2023/01/27 09:02:51;;;;;;;14.32;7.88;;;2.10;99.90;;;;;;4998382;28;20034;-85
2023/01/27 09:05:17;;;;;;;;;;;2.10;99.90;;;;;;4998767;28;20015;-85
2023/01/27 09:07:44;;;;;;;15.70;8.60;;;2.10;99.90;;;;;;4997963;28;19894;-84
2023/01/27 09:10:11;;;;;;;13.55;7.38;;;2.20;99.90;;;;;;4998931;28;20018;-85
2023/01/27 09:12:37;;;;;;;13.55;7.30;;;2.20;99.90;;;;;;4999182;28;20026;-84
2023/01/27 09:15:03;;;;;;;;;;;2.20;99.90;;;;;;4998438;28;20027;-85
2023/01/27 09:17:29;;;;;;;20.75;11.18;;;2.20;99.90;;;;;;4998732;28;19917;-85
2023/01/27 09:19:54;;;;;;;;;;;2.30;99.90;;;;;;4998132;28;20030;-85
2023/01/27 09:22:20;;;;;;;22.63;9.95;;;2.40;99.90;;;;;;4999473;28;19941;-85
2023/01/27 09:24:46;;;;;;;;;;;2.40;99.90;;;;;;5003285;28;20039;-85
2023/01/27 09:27:12;;;;;;;83.25;40.55;;;2.50;99.90;;;;;;5003709;28;19901;-85
2023/01/27 09:29:38;;;;;;;;;;;2.50;99.90;;;;;;5002339;28;20019;-85
2023/01/27 09:32:04;;;;;;;17.25;9.77;;;2.50;99.90;;;;;;5002740;28;19918;-85
2023/01/27 10:41:23;;;;;;;37.05;17.83;;;2.00;99.90;;;;;;5203000;23;20089;-83
2023/01/27 10:43:51;;;;;;;28.35;14.77;;;1.90;99.90;;;;;;4998546;28;20031;-83
2023/01/27 10:46:44;;;;;;;25.90;14.07;;;2.00;99.90;;;;;;4997943;28;20027;-83
2023/01/27 10:49:26;;;;;;;27.70;15.35;;;2.00;99.90;;;;;;4996042;28;20037;-83
2023/01/27 10:52:30;;;;;;;12.18;7.32;;;2.00;99.90;;;;;;4997761;28;20098;-83
2023/01/27 10:55:28;;;;;;;16.75;8.07;;;1.90;99.90;;;;;;4995699;28;20098;-83
2023/01/27 10:57:59;;;;;;;;;;;1.90;99.90;;;;;;4984185;28;20022;-84
2023/01/27 11:00:41;;;;;;;16.42;9.02;;;1.80;99.90;;;;;;4996820;28;19937;-84
2023/01/27 11:03:24;;;;;;;15.93;9.13;;;1.90;99.90;;;;;;4996792;28;20042;-82
2023/01/27 11:05:57;;;;;;;23.30;10.95;;;1.90;99.90;;;;;;4997043;28;20031;-83
2023/01/27 11:08:31;;;;;;;24.15;12.43;;;1.90;99.90;;;;;;4996913;28;20026;-83
2023/01/27 11:13:45;;;;;;;32.10;17.15;;;1.90;99.90;;;;;;4997240;28;20041;-83
2023/01/27 11:16:16;;;;;;;;;;;2.00;99.90;;;;;;4997677;28;20097;-83
2023/01/27 11:18:44;;;;;;;28.13;15.82;;;2.10;99.90;;;;;;4995994;28;19890;-83
2023/01/27 11:21:26;;;;;;;31.27;17.63;;;2.20;99.90;;;;;;4996433;28;20022;-84
2023/01/27 11:23:55;;;;;;;35.10;18.75;;;2.30;99.90;;;;;;4995886;28;20051;-83
2023/01/27 11:26:30;;;;;;;39.08;22.83;;;2.30;99.90;;;;;;4994063;28;20047;-83
2023/01/27 11:29:14;;;;;;;37.65;19.38;;;2.40;99.90;;;;;;4994120;28;20031;-83
2023/01/27 11:32:15;;;;;;;33.38;17.88;;;2.50;99.90;;;;;;4994999;28;20043;-82
2023/01/27 11:34:56;;;;;;;33.22;18.98;;;2.50;99.90;;;;;;4995312;28;20114;-83
2023/01/27 11:37:32;;;;;;;23.73;13.05;;;2.50;99.90;;;;;;4995349;28;20037;-83
2023/01/27 11:39:58;;;;;;;26.58;15.60;;;2.50;99.90;;;;;;4994659;28;20127;-83
2023/01/27 11:42:30;;;;;;;23.77;13.82;;;2.50;99.90;;;;;;4995239;28;20094;-83
2023/01/27 11:44:57;;;;;;;24.48;14.27;;;2.60;99.90;;;;;;4992492;28;20136;-84
2023/01/27 11:47:29;;;;;;;56.83;29.52;;;2.60;99.90;;;;;;4994740;28;20034;-83
2023/01/27 11:49:56;;;;;;;34.85;15.38;;;2.50;99.90;;;;;;4995180;28;20117;-82
2023/01/27 11:52:27;;;;;;;107.25;58.78;;;2.40;99.90;;;;;;4998438;28;20038;-84
2023/01/27 11:55:13;;;;;;;100.72;53.85;;;2.40;99.90;;;;;;4997323;28;20009;-84
2023/01/27 11:57:48;;;;;;;66.15;38.47;;;2.40;99.90;;;;;;4998054;28;20031;-83
2023/01/27 12:00:30;;;;;;;44.65;28.50;;;2.50;99.90;;;;;;4997687;28;20011;-83
2023/01/27 12:03:10;;;;;;;41.83;23.67;;;2.40;99.90;;;;;;4997314;28;20031;-84
2023/01/27 12:05:44;;;;;;;25.88;16.73;;;2.50;99.90;;;;;;4998107;28;20409;-83
2023/01/27 12:08:10;;;;;;;18.45;10.27;;;2.70;99.90;;;;;;4997807;28;20038;-83
2023/01/27 12:10:40;;;;;;;18.25;9.45;;;2.90;99.90;;;;;;4999442;28;20019;-83
2023/01/27 12:13:18;;;;;;;16.42;9.35;;;2.70;99.90;;;;;;4998918;28;20003;-84
2023/01/27 12:15:55;;;;;;;31.20;17.27;;;3.10;99.90;;;;;;5000389;28;20066;-84
2023/01/27 12:18:24;;;;;;;28.25;16.70;;;3.10;99.90;;;;;;5000491;28;20014;-83
2023/01/27 12:21:05;;;;;;;31.00;18.80;;;2.60;99.90;;;;;;5000471;28;20055;-84
2023/01/27 12:23:46;;;;;;;34.10;22.55;;;3.30;99.90;;;;;;4999893;28;20019;-83
2023/01/27 12:26:12;;;;;;;25.05;16.10;;;3.10;99.90;;;;;;5000000;28;20082;-82
2023/01/27 12:28:49;;;;;;;35.60;24.85;;;3.30;99.90;;;;;;5000602;28;20023;-83
2023/01/27 12:31:23;;;;;;;34.72;24.75;;;3.30;99.90;;;;;;5000580;28;20030;-82
2023/01/27 12:34:04;;;;;;;37.55;21.92;;;3.40;99.90;;;;;;5000065;28;20015;-83
2023/01/27 12:36:41;;;;;;;26.95;16.10;;;3.70;99.90;;;;;;5000466;28;20026;-82
2023/01/27 12:39:44;;;;;;;28.45;18.15;;;3.70;99.90;;;;;;4999885;28;20018;-83
2023/01/27 12:42:38;;;;;;;31.27;20.42;;;3.60;99.90;;;;;;5000131;28;20046;-83
2023/01/27 12:45:29;;;;;;;51.85;29.98;;;3.60;99.90;;;;;;4999880;28;20064;-83
2023/01/27 12:47:59;;;;;;;33.47;18.25;;;3.80;99.90;;;;;;4999627;28;20025;-84
2023/01/27 12:50:27;;;;;;;31.45;18.27;;;3.60;99.90;;;;;;4999523;28;20022;-83
2023/01/27 12:53:08;;;;;;;49.65;27.70;;;3.70;99.90;;;;;;5000128;28;20007;-82
2023/01/27 12:55:58;;;;;;;40.35;24.35;;;3.80;99.90;;;;;;5000400;28;20015;-80
2023/01/27 12:58:38;;;;;;;31.77;18.30;;;3.60;99.90;;;;;;5008266;28;20041;-82
2023/01/27 13:01:19;;;;;;;39.38;23.73;;;3.60;99.90;;;;;;5000352;28;20014;-82
2023/01/27 13:03:50;;;;;;;29.65;18.92;;;3.70;99.90;;;;;;5000251;28;20023;-82
2023/01/27 13:06:19;;;;;;;29.85;19.02;;;3.80;99.90;;;;;;5000391;28;20070;-79
2023/01/27 13:08:48;;;;;;;32.40;20.67;;;3.90;99.90;;;;;;5000312;28;20018;-83
2023/01/27 13:11:14;;;;;;;46.63;28.98;;;3.80;99.90;;;;;;4999954;28;20047;-81
2023/01/27 13:13:49;;;;;;;43.78;28.25;;;3.70;99.90;;;;;;4999719;28;20042;-81
2023/01/27 13:16:24;;;;;;;40.00;22.73;;;3.90;99.90;;;;;;4999649;28;20421;-80
2023/01/27 13:18:58;;;;;;;29.20;16.67;;;3.90;99.90;;;;;;4999729;28;20015;-80
2023/01/27 13:21:36;;;;;;;29.77;17.38;;;4.00;99.90;;;;;;5000101;28;20023;-80
2023/01/27 13:24:09;;;;;;;26.05;15.00;;;3.90;99.90;;;;;;5000035;28;20003;-80
2023/01/27 13:26:36;;;;;;;26.15;16.08;;;3.90;99.90;;;;;;5000003;28;20015;-80
2023/01/27 13:29:08;;;;;;;25.95;14.40;;;3.70;99.90;;;;;;4999628;28;20035;-82
2023/01/27 13:31:52;;;;;;;25.23;15.27;;;3.70;99.90;;;;;;4999966;28;20023;-80
2023/01/27 14:55:55;;;;;;;51.60;29.63;;;2.70;99.90;;;;;;1799407;23;20553;-84
2023/01/27 14:58:39;;;;;;;40.97;24.13;;;2.70;99.90;;;;;;5017336;28;20034;-84
2023/01/27 15:01:32;;;;;;;47.47;28.88;;;2.80;99.90;;;;;;5034818;28;20050;-85
2023/01/27 15:04:18;;;;;;;49.53;28.83;;;2.50;99.90;;;;;;5035716;28;20049;-84
2023/01/27 15:06:54;;;;;;;36.00;20.33;;;2.70;99.90;;;;;;5035050;28;20102;-85
2023/01/27 15:09:30;;;;;;;34.45;18.45;;;2.70;99.90;;;;;;5034400;28;20042;-86
2023/01/27 15:12:17;;;;;;;24.85;14.85;;;2.70;99.90;;;;;;5018555;28;20057;-85
2023/01/27 15:15:02;;;;;;;29.10;17.15;;;2.70;99.90;;;;;;5035637;28;20041;-84
2023/01/27 15:17:56;;;;;;;26.33;16.02;;;2.70;99.90;;;;;;5018381;28;20030;-85
2023/01/27 15:20:51;;;;;;;30.20;16.33;;;2.60;99.90;;;;;;5016770;28;20091;-85
2023/01/27 15:23:41;;;;;;;52.28;29.30;;;2.60;99.90;;;;;;5018788;28;20022;-85
2023/01/27 15:26:09;;;;;;;50.45;28.25;;;2.60;99.90;;;;;;5018437;28;20038;-85
2023/01/27 15:28:42;;;;;;;90.57;53.78;;;2.80;99.90;;;;;;5017639;28;20023;-84
2023/01/27 15:31:14;;;;;;;73.30;42.10;;;2.50;99.90;;;;;;5027989;28;20082;-84
2023/01/27 15:33:52;;;;;;;54.83;32.90;;;2.50;99.90;;;;;;4999167;28;20011;-84
2023/01/27 15:36:30;;;;;;;58.70;34.47;;;2.50;99.90;;;;;;4998380;28;20022;-84
2023/01/27 15:39:14;;;;;;;67.60;44.50;;;2.90;99.90;;;;;;4998080;28;20030;-85
2023/01/27 15:42:12;;;;;;;55.60;35.38;;;2.30;99.90;;;;;;4998721;28;20059;-84
2023/01/27 15:44:57;;;;;;;50.67;28.27;;;2.50;99.90;;;;;;4997707;28;20042;-84
2023/01/27 15:47:25;;;;;;;38.45;22.48;;;2.30;99.90;;;;;;4998502;28;20015;-85
2023/01/27 15:50:05;;;;;;;37.25;20.52;;;2.40;99.90;;;;;;4998570;28;20083;-84
2023/01/27 15:52:38;;;;;;;34.95;20.27;;;2.40;99.90;;;;;;4999527;28;20035;-84
2023/01/27 15:55:06;;;;;;;33.67;18.90;;;2.50;99.90;;;;;;4998821;28;20022;-84
2023/01/27 15:57:36;;;;;;;24.58;15.25;;;2.40;99.90;;;;;;4998032;28;20062;-86
2023/01/27 16:00:06;;;;;;;27.80;16.15;;;2.30;99.90;;;;;;4998618;28;20502;-85
2023/01/27 16:02:43;;;;;;;26.90;16.80;;;2.30;99.90;;;;;;4999328;28;20042;-83
2023/01/27 16:05:25;;;;;;;28.33;16.65;;;2.30;99.90;;;;;;4998764;28;20040;-85
2023/01/27 16:07:54;;;;;;;29.58;16.20;;;2.30;99.90;;;;;;4998856;28;20019;-85
2023/01/27 16:10:23;;;;;;;31.15;17.83;;;2.30;99.90;;;;;;4997958;28;20047;-85
2023/01/27 16:12:51;;;;;;;32.72;18.77;;;2.30;99.90;;;;;;4998242;28;20017;-85
2023/01/27 16:15:31;;;;;;;41.88;21.40;;;2.30;99.90;;;;;;4998972;28;20003;-85
2023/01/27 16:18:06;;;;;;;29.60;17.25;;;2.20;99.90;;;;;;4997827;28;20041;-85
2023/01/27 16:20:49;;;;;;;37.38;20.52;;;2.20;99.90;;;;;;4998948;28;20024;-85
2023/01/27 16:23:27;;;;;;;29.38;16.50;;;2.20;99.90;;;;;;4998245;28;20034;-85